Terminal Aerodrome Forecast
Issued by NWS Wilmington, OH

Current Version | Previous Version | Graphics & Text | Print | Product List | Glossary On
Versions: 1 2 3 4 5 6 7 8 9 10 11 12 13 14 15 16 17 18 19 20
000
FTUS41 KILN 281300 AAA
TAFCVG
TAF AMD
KCVG 281357Z 2814/2918 06008KT P6SM SCT250
      TEMPO 2814/2815 BKN012
     FM290200 08005KT P6SM SCT250
     FM291000 11004KT 5SM BR SCT250
     FM291300 13006KT P6SM SCT250=

USA.gov is the U.S. government's official web portal to all federal, state and local government web resources and services.